sensor_id;sensor_type;location;lat;lon;timestamp;pressure;altitude;pressure_sealevel;temperature;humidity
28456;BME280;15682;56.742;38.866;2023-04-01T00:00:40;98120.0;;;1.1;97.5
28456;BME280;15682;56.742;38.866;2023-04-01T00:02:40;98120.0;;;1.1;97.5
28456;BME280;15682;56.742;38.866;2023-04-01T00:04:40;98120.0;;;1.2;97.4
28456;BME280;15682;56.742;38.866;2023-04-01T00:06:40;98120.0;;;1.2;97.4
28456;BME280;15682;56.742;38.866;2023-04-01T00:08:40;98120.0;;;1.2;97.4
28456;BME280;15682;56.742;38.866;2023-04-01T00:10:40;98120.0;;;1.2;97.4
28456;BME280;15682;56.742;38.866;2023-04-01T00:12:41;98120.0;;;1.1;97.4
28456;BME280;15682;56.742;38.866;2023-04-01T00:14:40;98110.0;;;1.1;97.4
28456;BME280;15682;56.742;38.866;2023-04-01T00:16:40;98110.0;;;1.1;97.4
28456;BME280;15682;56.742;38.866;2023-04-01T00:18:40;98110.0;;;1.1;97.4
28456;BME280;15682;56.742;38.866;2023-04-01T00:20:43;98110.0;;;1.1;97.0
28456;BME280;15682;56.742;38.866;2023-04-01T00:22:40;98110.0;;;1.1;97.6
28456;BME280;15682;56.742;38.866;2023-04-01T00:24:40;98110.0;;;1.2;97.2
28456;BME280;15682;56.742;38.866;2023-04-01T00:26:40;98110.0;;;1.2;97.2
28456;BME280;15682;56.742;38.866;2023-04-01T00:28:41;98110.0;;;1.2;97.2
28456;BME280;15682;56.742;38.866;2023-04-01T00:30:40;98110.0;;;1.1;97.2
28456;BME280;15682;56.742;38.866;2023-04-01T00:32:40;98110.0;;;1.2;97.2
28456;BME280;15682;56.742;38.866;2023-04-01T00:34:40;98110.0;;;1.2;97.3
28456;BME280;15682;56.742;38.866;2023-04-01T00:36:40;98110.0;;;1.0;97.3
28456;BME280;15682;56.742;38.866;2023-04-01T00:38:40;98110.0;;;1.0;97.3
28456;BME280;15682;56.742;38.866;2023-04-01T00:40:42;98110.0;;;1.0;97.3
28456;BME280;15682;56.742;38.866;2023-04-01T00:42:40;98110.0;;;1.0;97.3
28456;BME280;15682;56.742;38.866;2023-04-01T00:44:40;98110.0;;;1.0;97.4
28456;BME280;15682;56.742;38.866;2023-04-01T00:46:39;98110.0;;;1.0;97.4
28456;BME280;15682;56.742;38.866;2023-04-01T00:48:43;98110.0;;;1.0;97.4
28456;BME280;15682;56.742;38.866;2023-04-01T00:50:41;98110.0;;;1.0;97.4
28456;BME280;15682;56.742;38.866;2023-04-01T00:52:39;98110.0;;;1.0;97.4
28456;BME280;15682;56.742;38.866;2023-04-01T00:54:41;98110.0;;;1.0;97.8
28456;BME280;15682;56.742;38.866;2023-04-01T00:56:42;98110.0;;;1.0;97.8
28456;BME280;15682;56.742;38.866;2023-04-01T00:56:51;98110.0;;;1.0;97.8
28456;BME280;15682;56.742;38.866;2023-04-01T00:56:58;98110.0;;;1.0;97.8
28456;BME280;15682;56.742;38.866;2023-04-01T00:58:46;98110.0;;;1.0;97.8
28456;BME280;15682;56.742;38.866;2023-04-01T01:00:40;98110.0;;;1.1;97.8
28456;BME280;15682;56.742;38.866;2023-04-01T01:02:41;98110.0;;;1.0;97.8
28456;BME280;15682;56.742;38.866;2023-04-01T01:04:39;98110.0;;;1.0;97.2
28456;BME280;15682;56.742;38.866;2023-04-01T01:06:46;98110.0;;;1.0;97.2
28456;BME280;15682;56.742;38.866;2023-04-01T01:08:52;98110.0;;;1.0;97.2
28456;BME280;15682;56.742;38.866;2023-04-01T01:10:39;98110.0;;;1.0;97.2
28456;BME280;15682;56.742;38.866;2023-04-01T01:12:43;98110.0;;;1.0;97.2
28456;BME280;15682;56.742;38.866;2023-04-01T01:14:51;98110.0;;;1.0;97.3
28456;BME280;15682;56.742;38.866;2023-04-01T01:16:43;98110.0;;;1.0;97.3
28456;BME280;15682;56.742;38.866;2023-04-01T01:18:45;98110.0;;;1.0;97.3
28456;BME280;15682;56.742;38.866;2023-04-01T01:20:57;98110.0;;;1.1;97.3
28456;BME280;15682;56.742;38.866;2023-04-01T01:22:55;98110.0;;;1.0;97.0
28456;BME280;15682;56.742;38.866;2023-04-01T01:24:49;98110.0;;;1.0;97.0
28456;BME280;15682;56.742;38.866;2023-04-01T01:26:46;98110.0;;;1.1;97.0
28456;BME280;15682;56.742;38.866;2023-04-01T01:28:47;98110.0;;;1.1;97.0
28456;BME280;15682;56.742;38.866;2023-04-01T01:30:42;98110.0;;;1.0;97.0
28456;BME280;15682;56.742;38.866;2023-04-01T01:32:51;98110.0;;;1.1;97.0
28456;BME280;15682;56.742;38.866;2023-04-01T01:34:46;98110.0;;;1.1;96.8
28456;BME280;15682;56.742;38.866;2023-04-01T01:36:41;98110.0;;;1.1;96.8
28456;BME280;15682;56.742;38.866;2023-04-01T01:38:39;98110.0;;;1.1;96.8
28456;BME280;15682;56.742;38.866;2023-04-01T01:40:42;98110.0;;;1.1;96.8
28456;BME280;15682;56.742;38.866;2023-04-01T01:42:41;98110.0;;;1.1;96.8
28456;BME280;15682;56.742;38.866;2023-04-01T01:44:39;98110.0;;;1.0;97.2
28456;BME280;15682;56.742;38.866;2023-04-01T01:46:39;98110.0;;;1.0;97.2
28456;BME280;15682;56.742;38.866;2023-04-01T01:48:40;98110.0;;;1.0;97.2
28456;BME280;15682;56.742;38.866;2023-04-01T01:50:39;98110.0;;;1.0;97.2
28456;BME280;15682;56.742;38.866;2023-04-01T01:52:38;98110.0;;;1.1;97.2
28456;BME280;15682;56.742;38.866;2023-04-01T01:54:47;98110.0;;;1.1;97.3
28456;BME280;15682;56.742;38.866;2023-04-01T01:56:38;98110.0;;;1.1;97.3
28456;BME280;15682;56.742;38.866;2023-04-01T01:58:41;98110.0;;;1.1;97.3
28456;BME280;15682;56.742;38.866;2023-04-01T02:00:39;98110.0;;;1.1;97.3
28456;BME280;15682;56.742;38.866;2023-04-01T02:02:38;98110.0;;;1.2;97.3
28456;BME280;15682;56.742;38.866;2023-04-01T02:04:40;98110.0;;;1.2;97.0
28456;BME280;15682;56.742;38.866;2023-04-01T02:06:42;98110.0;;;1.2;97.0
28456;BME280;15682;56.742;38.866;2023-04-01T02:08:40;98110.0;;;1.2;97.0
28456;BME280;15682;56.742;38.866;2023-04-01T02:10:42;98110.0;;;1.2;97.0
28456;BME280;15682;56.742;38.866;2023-04-01T02:12:38;98110.0;;;1.1;97.0
28456;BME280;15682;56.742;38.866;2023-04-01T02:14:41;98110.0;;;1.1;97.3
28456;BME280;15682;56.742;38.866;2023-04-01T02:16:40;98110.0;;;1.1;97.3
28456;BME280;15682;56.742;38.866;2023-04-01T02:18:38;98120.0;;;1.1;97.3
28456;BME280;15682;56.742;38.866;2023-04-01T02:20:38;98120.0;;;1.1;97.3
28456;BME280;15682;56.742;38.866;2023-04-01T02:22:40;98120.0;;;1.1;97.3
28456;BME280;15682;56.742;38.866;2023-04-01T02:24:38;98120.0;;;1.1;97.2
28456;BME280;15682;56.742;38.866;2023-04-01T02:26:38;98120.0;;;1.1;97.2
28456;BME280;15682;56.742;38.866;2023-04-01T02:28:38;98120.0;;;1.1;97.2
28456;BME280;15682;56.742;38.866;2023-04-01T02:30:39;98120.0;;;1.1;97.2
28456;BME280;15682;56.742;38.866;2023-04-01T02:32:38;98120.0;;;1.1;97.2
28456;BME280;15682;56.742;38.866;2023-04-01T02:34:38;98120.0;;;1.1;97.2
28456;BME280;15682;56.742;38.866;2023-04-01T02:36:38;98120.0;;;1.1;97.2
28456;BME280;15682;56.742;38.866;2023-04-01T02:38:37;98120.0;;;1.1;97.2
28456;BME280;15682;56.742;38.866;2023-04-01T02:40:47;98120.0;;;1.0;97.2
28456;BME280;15682;56.742;38.866;2023-04-01T02:42:37;98120.0;;;1.1;97.2
28456;BME280;15682;56.742;38.866;2023-04-01T02:44:37;98120.0;;;1.1;97.3
28456;BME280;15682;56.742;38.866;2023-04-01T02:46:37;98120.0;;;1.1;97.3
28456;BME280;15682;56.742;38.866;2023-04-01T02:48:37;98120.0;;;1.1;97.3
28456;BME280;15682;56.742;38.866;2023-04-01T02:50:37;98120.0;;;1.1;97.3
28456;BME280;15682;56.742;38.866;2023-04-01T02:52:37;98120.0;;;1.2;97.3
28456;BME280;15682;56.742;38.866;2023-04-01T02:54:37;98120.0;;;1.2;97.2
28456;BME280;15682;56.742;38.866;2023-04-01T02:56:37;98120.0;;;1.2;97.2
28456;BME280;15682;56.742;38.866;2023-04-01T02:58:37;98120.0;;;1.2;97.2
28456;BME280;15682;56.742;38.866;2023-04-01T03:00:37;98120.0;;;1.2;97.2
28456;BME280;15682;56.742;38.866;2023-04-01T03:02:37;98120.0;;;1.1;97.2
28456;BME280;15682;56.742;38.866;2023-04-01T03:04:37;98120.0;;;1.1;97.0
28456;BME280;15682;56.742;38.866;2023-04-01T03:06:37;98120.0;;;1.1;97.0
28456;BME280;15682;56.742;38.866;2023-04-01T03:08:37;98120.0;;;1.1;97.0
28456;BME280;15682;56.742;38.866;2023-04-01T03:10:37;98130.0;;;1.3;97.0
28456;BME280;15682;56.742;38.866;2023-04-01T03:12:37;98130.0;;;1.2;97.0
28456;BME280;15682;56.742;38.866;2023-04-01T03:14:36;98130.0;;;1.2;96.4
28456;BME280;15682;56.742;38.866;2023-04-01T03:16:36;98130.0;;;1.2;96.4
28456;BME280;15682;56.742;38.866;2023-04-01T03:18:36;98130.0;;;1.2;96.4
28456;BME280;15682;56.742;38.866;2023-04-01T03:20:36;98130.0;;;1.2;96.4
28456;BME280;15682;56.742;38.866;2023-04-01T03:22:37;98130.0;;;1.3;96.4
28456;BME280;15682;56.742;38.866;2023-04-01T03:24:36;98140.0;;;1.3;96.5
28456;BME280;15682;56.742;38.866;2023-04-01T03:26:36;98140.0;;;1.3;96.5
28456;BME280;15682;56.742;38.866;2023-04-01T03:28:36;98140.0;;;1.3;96.5
28456;BME280;15682;56.742;38.866;2023-04-01T03:30:36;98140.0;;;1.3;96.5
28456;BME280;15682;56.742;38.866;2023-04-01T03:32:36;98140.0;;;1.2;96.5
28456;BME280;15682;56.742;38.866;2023-04-01T03:34:36;98140.0;;;1.2;96.5
28456;BME280;15682;56.742;38.866;2023-04-01T03:36:36;98140.0;;;1.2;96.5
28456;BME280;15682;56.742;38.866;2023-04-01T03:38:36;98150.0;;;1.2;96.5
28456;BME280;15682;56.742;38.866;2023-04-01T03:40:36;98150.0;;;1.2;96.5
28456;BME280;15682;56.742;38.866;2023-04-01T03:42:36;98150.0;;;1.5;96.5
28456;BME280;15682;56.742;38.866;2023-04-01T03:44:36;98150.0;;;1.5;96.1
28456;BME280;15682;56.742;38.866;2023-04-01T03:46:36;98160.0;;;1.5;96.1
28456;BME280;15682;56.742;38.866;2023-04-01T03:48:36;98160.0;;;1.5;96.1
28456;BME280;15682;56.742;38.866;2023-04-01T03:50:36;98160.0;;;1.5;96.1
28456;BME280;15682;56.742;38.866;2023-04-01T03:52:36;98160.0;;;1.5;95.9
28456;BME280;15682;56.742;38.866;2023-04-01T03:54:36;98160.0;;;1.5;95.9
28456;BME280;15682;56.742;38.866;2023-04-01T03:56:36;98160.0;;;1.5;95.9
28456;BME280;15682;56.742;38.866;2023-04-01T03:58:36;98160.0;;;1.5;95.9
28456;BME280;15682;56.742;38.866;2023-04-01T04:00:36;98160.0;;;1.5;95.9
28456;BME280;15682;56.742;38.866;2023-04-01T04:02:36;98160.0;;;1.5;95.9
28456;BME280;15682;56.742;38.866;2023-04-01T04:04:36;98160.0;;;1.5;95.7
28456;BME280;15682;56.742;38.866;2023-04-01T04:06:36;98160.0;;;1.6;95.7
28456;BME280;15682;56.742;38.866;2023-04-01T04:08:36;98160.0;;;1.6;95.7
28456;BME280;15682;56.742;38.866;2023-04-01T04:10:35;98160.0;;;1.6;95.7
28456;BME280;15682;56.742;38.866;2023-04-01T04:12:36;98160.0;;;1.6;95.3
28456;BME280;15682;56.742;38.866;2023-04-01T04:14:35;98160.0;;;1.6;95.4
28456;BME280;15682;56.742;38.866;2023-04-01T04:16:36;98160.0;;;1.6;95.4
28456;BME280;15682;56.742;38.866;2023-04-01T04:18:36;98160.0;;;1.6;95.4
28456;BME280;15682;56.742;38.866;2023-04-01T04:20:35;98160.0;;;1.6;95.4
28456;BME280;15682;56.742;38.866;2023-04-01T04:22:35;98170.0;;;1.6;95.4
28456;BME280;15682;56.742;38.866;2023-04-01T04:24:36;98170.0;;;1.6;95.3
28456;BME280;15682;56.742;38.866;2023-04-01T04:26:36;98170.0;;;1.6;95.3
28456;BME280;15682;56.742;38.866;2023-04-01T04:28:36;98180.0;;;1.6;95.3
28456;BME280;15682;56.742;38.866;2023-04-01T04:30:35;98180.0;;;1.6;95.3
28456;BME280;15682;56.742;38.866;2023-04-01T04:32:36;98180.0;;;1.7;95.3
28456;BME280;15682;56.742;38.866;2023-04-01T04:34:35;98180.0;;;1.7;95.1
28456;BME280;15682;56.742;38.866;2023-04-01T04:36:35;98180.0;;;1.6;95.1
28456;BME280;15682;56.742;38.866;2023-04-01T04:38:35;98180.0;;;1.7;95.1
28456;BME280;15682;56.742;38.866;2023-04-01T04:40:36;98180.0;;;1.7;95.1
28456;BME280;15682;56.742;38.866;2023-04-01T04:42:35;98180.0;;;1.8;95.1
28456;BME280;15682;56.742;38.866;2023-04-01T04:44:35;98180.0;;;1.8;95.0
28456;BME280;15682;56.742;38.866;2023-04-01T04:46:35;98180.0;;;1.8;95.0
28456;BME280;15682;56.742;38.866;2023-04-01T04:48:35;98180.0;;;1.8;94.8
28456;BME280;15682;56.742;38.866;2023-04-01T04:50:36;98180.0;;;1.9;94.8
28456;BME280;15682;56.742;38.866;2023-04-01T04:52:35;98180.0;;;1.9;94.8
28456;BME280;15682;56.742;38.866;2023-04-01T04:54:35;98190.0;;;1.9;94.3
28456;BME280;15682;56.742;38.866;2023-04-01T04:56:35;98190.0;;;1.9;94.3
28456;BME280;15682;56.742;38.866;2023-04-01T04:58:36;98190.0;;;2.0;94.3
28456;BME280;15682;56.742;38.866;2023-04-01T05:00:35;98190.0;;;2.0;94.3
28456;BME280;15682;56.742;38.866;2023-04-01T05:02:35;98190.0;;;2.0;94.3
28456;BME280;15682;56.742;38.866;2023-04-01T05:04:36;98190.0;;;2.0;94.0
28456;BME280;15682;56.742;38.866;2023-04-01T05:06:35;98190.0;;;2.1;93.7
28456;BME280;15682;56.742;38.866;2023-04-01T05:08:36;98190.0;;;2.3;92.9
28456;BME280;15682;56.742;38.866;2023-04-01T05:11:30;98190.0;;;3.3;87.7
28456;BME280;15682;56.742;38.866;2023-04-01T05:13:57;98190.0;;;2.4;92.9
28456;BME280;15682;56.742;38.866;2023-04-01T05:14:35;98190.0;;;2.4;92.9
28456;BME280;15682;56.742;38.866;2023-04-01T05:16:35;98190.0;;;2.6;92.9
28456;BME280;15682;56.742;38.866;2023-04-01T05:18:35;98190.0;;;2.6;92.9
28456;BME280;15682;56.742;38.866;2023-04-01T05:20:35;98190.0;;;2.6;92.3
28456;BME280;15682;56.742;38.866;2023-04-01T05:22:35;98200.0;;;2.6;92.8
28456;BME280;15682;56.742;38.866;2023-04-01T05:24:35;98200.0;;;2.6;91.6
28456;BME280;15682;56.742;38.866;2023-04-01T05:26:36;98200.0;;;2.7;91.6
28456;BME280;15682;56.742;38.866;2023-04-01T05:28:36;98200.0;;;2.7;92.5
28456;BME280;15682;56.742;38.866;2023-04-01T05:30:35;98200.0;;;2.7;92.5
28456;BME280;15682;56.742;38.866;2023-04-01T05:32:36;98210.0;;;2.9;91.8
28456;BME280;15682;56.742;38.866;2023-04-01T05:34:35;98210.0;;;2.7;92.1
28456;BME280;15682;56.742;38.866;2023-04-01T05:36:36;98210.0;;;2.8;92.1
28456;BME280;15682;56.742;38.866;2023-04-01T05:38:36;98210.0;;;2.8;92.1
28456;BME280;15682;56.742;38.866;2023-04-01T05:40:36;98210.0;;;2.8;92.1
28456;BME280;15682;56.742;38.866;2023-04-01T05:42:36;98210.0;;;2.6;92.6
28456;BME280;15682;56.742;38.866;2023-04-01T05:44:36;98210.0;;;2.6;93.0
28456;BME280;15682;56.742;38.866;2023-04-01T05:46:36;98210.0;;;2.6;93.0
28456;BME280;15682;56.742;38.866;2023-04-01T05:48:36;98210.0;;;2.7;93.0
28456;BME280;15682;56.742;38.866;2023-04-01T05:50:36;98210.0;;;2.7;93.0
28456;BME280;15682;56.742;38.866;2023-04-01T05:52:36;98210.0;;;2.8;92.0
28456;BME280;15682;56.742;38.866;2023-04-01T05:54:36;98210.0;;;2.6;93.0
28456;BME280;15682;56.742;38.866;2023-04-01T05:56:36;98210.0;;;2.6;92.4
28456;BME280;15682;56.742;38.866;2023-04-01T05:58:36;98210.0;;;2.5;93.2
28456;BME280;15682;56.742;38.866;2023-04-01T06:00:36;98210.0;;;2.7;93.2
28456;BME280;15682;56.742;38.866;2023-04-01T06:02:36;98220.0;;;2.7;92.0
28456;BME280;15682;56.742;38.866;2023-04-01T06:04:38;98220.0;;;2.5;92.9
28456;BME280;15682;56.742;38.866;2023-04-01T06:06:36;98230.0;;;2.4;93.6
28456;BME280;15682;56.742;38.866;2023-04-01T06:08:36;98230.0;;;2.4;94.1
28456;BME280;15682;56.742;38.866;2023-04-01T06:10:43;98230.0;;;2.6;93.2
28456;BME280;15682;56.742;38.866;2023-04-01T06:12:45;98240.0;;;2.7;92.6
28456;BME280;15682;56.742;38.866;2023-04-01T06:14:41;98240.0;;;2.7;92.7
28456;BME280;15682;56.742;38.866;2023-04-01T06:16:44;98240.0;;;2.7;92.0
28456;BME280;15682;56.742;38.866;2023-04-01T06:18:45;98240.0;;;2.7;91.7
28456;BME280;15682;56.742;38.866;2023-04-01T06:20:41;98240.0;;;2.7;92.5
28456;BME280;15682;56.742;38.866;2023-04-01T06:22:51;98240.0;;;2.7;92.5
28456;BME280;15682;56.742;38.866;2023-04-01T06:24:45;98240.0;;;2.7;92.3
28456;BME280;15682;56.742;38.866;2023-04-01T06:26:39;98240.0;;;2.9;92.3
28456;BME280;15682;56.742;38.866;2023-04-01T06:30:41;98240.0;;;3.0;91.0
28456;BME280;15682;56.742;38.866;2023-04-01T06:32:46;98240.0;;;2.9;91.0
28456;BME280;15682;56.742;38.866;2023-04-01T06:34:52;98240.0;;;3.0;91.1
28456;BME280;15682;56.742;38.866;2023-04-01T06:36:43;98240.0;;;3.0;93.9
28456;BME280;15682;56.742;38.866;2023-04-01T06:38:45;98240.0;;;3.2;92.0
28456;BME280;15682;56.742;38.866;2023-04-01T06:40:49;98240.0;;;2.9;90.8
28456;BME280;15682;56.742;38.866;2023-04-01T06:42:47;98240.0;;;2.9;91.8
28456;BME280;15682;56.742;38.866;2023-04-01T06:44:43;98240.0;;;3.0;92.1
28456;BME280;15682;56.742;38.866;2023-04-01T06:46:45;98240.0;;;3.0;92.7
28456;BME280;15682;56.742;38.866;2023-04-01T06:48:47;98240.0;;;3.0;92.0
28456;BME280;15682;56.742;38.866;2023-04-01T06:50:43;98250.0;;;3.0;93.3
28456;BME280;15682;56.742;38.866;2023-04-01T06:52:44;98250.0;;;3.0;92.6
28456;BME280;15682;56.742;38.866;2023-04-01T06:54:38;98250.0;;;3.4;90.9
28456;BME280;15682;56.742;38.866;2023-04-01T06:56:37;98260.0;;;3.4;90.9
28456;BME280;15682;56.742;38.866;2023-04-01T06:58:39;98260.0;;;3.6;90.9
28456;BME280;15682;56.742;38.866;2023-04-01T07:00:39;98260.0;;;3.7;90.8
28456;BME280;15682;56.742;38.866;2023-04-01T07:02:41;98260.0;;;3.9;91.1
28456;BME280;15682;56.742;38.866;2023-04-01T07:04:40;98260.0;;;4.1;89.7
28456;BME280;15682;56.742;38.866;2023-04-01T07:06:39;98260.0;;;4.1;90.0
28456;BME280;15682;56.742;38.866;2023-04-01T07:08:41;98260.0;;;4.1;88.6
28456;BME280;15682;56.742;38.866;2023-04-01T07:10:43;98260.0;;;4.2;88.8
28456;BME280;15682;56.742;38.866;2023-04-01T07:12:46;98260.0;;;4.1;90.9
28456;BME280;15682;56.742;38.866;2023-04-01T07:14:39;98260.0;;;4.1;89.9
28456;BME280;15682;56.742;38.866;2023-04-01T07:16:39;98260.0;;;4.1;88.8
28456;BME280;15682;56.742;38.866;2023-04-01T07:18:41;98260.0;;;4.1;88.8
28456;BME280;15682;56.742;38.866;2023-04-01T07:20:38;98270.0;;;4.0;88.8
28456;BME280;15682;56.742;38.866;2023-04-01T07:22:40;98270.0;;;4.1;91.1
28456;BME280;15682;56.742;38.866;2023-04-01T07:24:40;98270.0;;;4.2;91.0
28456;BME280;15682;56.742;38.866;2023-04-01T07:26:37;98270.0;;;4.2;90.0
28456;BME280;15682;56.742;38.866;2023-04-01T07:29:01;98270.0;;;4.4;89.1
28456;BME280;15682;56.742;38.866;2023-04-01T07:30:46;98270.0;;;4.2;89.1
28456;BME280;15682;56.742;38.866;2023-04-01T07:32:44;98280.0;;;4.3;89.6
28456;BME280;15682;56.742;38.866;2023-04-01T07:34:45;98280.0;;;4.3;88.4
28456;BME280;15682;56.742;38.866;2023-04-01T07:35:49;98290.0;;;4.3;88.4
28456;BME280;15682;56.742;38.866;2023-04-01T07:35:58;98290.0;;;4.5;88.0
28456;BME280;15682;56.742;38.866;2023-04-01T07:36:40;98290.0;;;4.5;88.0
28456;BME280;15682;56.742;38.866;2023-04-01T07:38:45;98290.0;;;4.3;90.1
28456;BME280;15682;56.742;38.866;2023-04-01T07:40:45;98290.0;;;4.2;90.1
28456;BME280;15682;56.742;38.866;2023-04-01T07:42:45;98290.0;;;4.4;90.1
28456;BME280;15682;56.742;38.866;2023-04-01T07:44:46;98290.0;;;4.4;89.8
28456;BME280;15682;56.742;38.866;2023-04-01T07:46:46;98290.0;;;4.4;89.8
28456;BME280;15682;56.742;38.866;2023-04-01T07:48:43;98290.0;;;3.9;89.8
28456;BME280;15682;56.742;38.866;2023-04-01T07:50:41;98290.0;;;4.0;92.6
28456;BME280;15682;56.742;38.866;2023-04-01T07:52:46;98290.0;;;3.9;90.9
28456;BME280;15682;56.742;38.866;2023-04-01T07:54:41;98300.0;;;3.9;89.9
28456;BME280;15682;56.742;38.866;2023-04-01T07:56:44;98310.0;;;4.1;91.8
28456;BME280;15682;56.742;38.866;2023-04-01T07:58:50;98310.0;;;3.9;90.5
28456;BME280;15682;56.742;38.866;2023-04-01T08:00:44;98310.0;;;3.9;91.3
28456;BME280;15682;56.742;38.866;2023-04-01T08:02:51;98310.0;;;3.9;91.3
28456;BME280;15682;56.742;38.866;2023-04-01T08:04:50;98320.0;;;4.1;90.7
28456;BME280;15682;56.742;38.866;2023-04-01T08:06:42;98320.0;;;3.9;90.7
28456;BME280;15682;56.742;38.866;2023-04-01T08:08:48;98320.0;;;3.9;93.2
28456;BME280;15682;56.742;38.866;2023-04-01T08:10:45;98320.0;;;3.9;89.8
28456;BME280;15682;56.742;38.866;2023-04-01T08:12:47;98320.0;;;3.7;89.8
28456;BME280;15682;56.742;38.866;2023-04-01T08:14:46;98330.0;;;3.6;91.0
28456;BME280;15682;56.742;38.866;2023-04-01T08:16:46;98330.0;;;3.7;90.5
28456;BME280;15682;56.742;38.866;2023-04-01T08:18:43;98330.0;;;3.7;91.4
28456;BME280;15682;56.742;38.866;2023-04-01T08:20:43;98340.0;;;3.7;91.0
28456;BME280;15682;56.742;38.866;2023-04-01T08:22:42;98340.0;;;3.8;92.6
28456;BME280;15682;56.742;38.866;2023-04-01T08:24:42;98340.0;;;3.9;90.3
28456;BME280;15682;56.742;38.866;2023-04-01T08:26:43;98340.0;;;3.9;91.0
28456;BME280;15682;56.742;38.866;2023-04-01T08:28:43;98340.0;;;3.9;89.4
28456;BME280;15682;56.742;38.866;2023-04-01T08:30:42;98340.0;;;3.9;88.7
28456;BME280;15682;56.742;38.866;2023-04-01T08:32:42;98340.0;;;4.0;89.8
28456;BME280;15682;56.742;38.866;2023-04-01T08:34:42;98340.0;;;4.1;90.4
28456;BME280;15682;56.742;38.866;2023-04-01T08:36:42;98340.0;;;4.1;90.4
28456;BME280;15682;56.742;38.866;2023-04-01T08:38:42;98340.0;;;4.2;88.9
28456;BME280;15682;56.742;38.866;2023-04-01T08:40:55;98340.0;;;4.1;90.3
28456;BME280;15682;56.742;38.866;2023-04-01T08:42:55;98340.0;;;3.9;89.5
28456;BME280;15682;56.742;38.866;2023-04-01T08:45:05;98340.0;;;3.9;90.7
28456;BME280;15682;56.742;38.866;2023-04-01T08:47:02;98340.0;;;3.8;91.2
28456;BME280;15682;56.742;38.866;2023-04-01T08:48:52;98350.0;;;4.0;91.2
28456;BME280;15682;56.742;38.866;2023-04-01T08:51:01;98360.0;;;3.9;89.4
28456;BME280;15682;56.742;38.866;2023-04-01T08:52:45;98360.0;;;4.0;90.5
28456;BME280;15682;56.742;38.866;2023-04-01T08:54:54;98360.0;;;4.0;90.1
28456;BME280;15682;56.742;38.866;2023-04-01T08:56:46;98360.0;;;3.8;89.5
28456;BME280;15682;56.742;38.866;2023-04-01T08:59:13;98370.0;;;3.9;89.8
28456;BME280;15682;56.742;38.866;2023-04-01T09:00:45;98370.0;;;3.9;88.6
28456;BME280;15682;56.742;38.866;2023-04-01T09:05:07;98370.0;;;3.9;89.7
28456;BME280;15682;56.742;38.866;2023-04-01T09:06:49;98370.0;;;3.9;89.2
28456;BME280;15682;56.742;38.866;2023-04-01T09:08:54;98380.0;;;3.8;90.5
28456;BME280;15682;56.742;38.866;2023-04-01T09:10:56;98380.0;;;3.8;89.2
28456;BME280;15682;56.742;38.866;2023-04-01T09:12:59;98390.0;;;4.0;89.2
28456;BME280;15682;56.742;38.866;2023-04-01T09:14:55;98390.0;;;3.8;88.7
28456;BME280;15682;56.742;38.866;2023-04-01T09:17:01;98390.0;;;3.8;88.7
28456;BME280;15682;56.742;38.866;2023-04-01T09:18:59;98390.0;;;3.8;88.7
28456;BME280;15682;56.742;38.866;2023-04-01T09:21:02;98390.0;;;3.8;89.8
28456;BME280;15682;56.742;38.866;2023-04-01T09:22:50;98390.0;;;3.8;89.3
28456;BME280;15682;56.742;38.866;2023-04-01T09:24:52;98390.0;;;3.8;90.4
28456;BME280;15682;56.742;38.866;2023-04-01T09:26:51;98400.0;;;3.8;89.9
28456;BME280;15682;56.742;38.866;2023-04-01T09:28:47;98400.0;;;3.6;89.7
28456;BME280;15682;56.742;38.866;2023-04-01T09:31:00;98400.0;;;3.8;90.6
28456;BME280;15682;56.742;38.866;2023-04-01T09:33:03;98410.0;;;3.9;90.1
28456;BME280;15682;56.742;38.866;2023-04-01T09:34:52;98410.0;;;4.1;89.0
28456;BME280;15682;56.742;38.866;2023-04-01T09:36:45;98410.0;;;4.1;89.0
28456;BME280;15682;56.742;38.866;2023-04-01T09:38:54;98420.0;;;4.1;91.8
28456;BME280;15682;56.742;38.866;2023-04-01T09:40:46;98420.0;;;4.0;88.9
28456;BME280;15682;56.742;38.866;2023-04-01T09:42:45;98420.0;;;3.9;88.9
28456;BME280;15682;56.742;38.866;2023-04-01T09:44:46;98420.0;;;4.1;88.8
28456;BME280;15682;56.742;38.866;2023-04-01T09:46:57;98420.0;;;4.1;88.1
28456;BME280;15682;56.742;38.866;2023-04-01T09:50:50;98420.0;;;4.2;88.8
28456;BME280;15682;56.742;38.866;2023-04-01T09:52:46;98430.0;;;4.2;88.1
28456;BME280;15682;56.742;38.866;2023-04-01T09:54:54;98440.0;;;4.2;88.5
28456;BME280;15682;56.742;38.866;2023-04-01T09:56:57;98440.0;;;4.2;88.9
28456;BME280;15682;56.742;38.866;2023-04-01T10:00:55;98440.0;;;4.2;89.1
28456;BME280;15682;56.742;38.866;2023-04-01T10:05:12;98440.0;;;4.2;88.3
28456;BME280;15682;56.742;38.866;2023-04-01T10:07:02;98440.0;;;4.6;88.3
28456;BME280;15682;56.742;38.866;2023-04-01T10:08:58;98440.0;;;4.6;88.3
28456;BME280;15682;56.742;38.866;2023-04-01T10:10:57;98440.0;;;4.5;88.3
28456;BME280;15682;56.742;38.866;2023-04-01T10:12:59;98440.0;;;4.6;88.3
28456;BME280;15682;56.742;38.866;2023-04-01T10:15:00;98440.0;;;4.6;89.6
28456;BME280;15682;56.742;38.866;2023-04-01T10:17:00;98440.0;;;4.6;87.6
28456;BME280;15682;56.742;38.866;2023-04-01T10:19:01;98440.0;;;4.7;88.3
28456;BME280;15682;56.742;38.866;2023-04-01T10:21:02;98450.0;;;4.7;89.5
28456;BME280;15682;56.742;38.866;2023-04-01T10:22:53;98460.0;;;4.6;88.5
28456;BME280;15682;56.742;38.866;2023-04-01T10:25:04;98460.0;;;4.4;89.2
28456;BME280;15682;56.742;38.866;2023-04-01T10:26:59;98460.0;;;4.4;88.4
28456;BME280;15682;56.742;38.866;2023-04-01T10:28:59;98460.0;;;4.3;89.3
28456;BME280;15682;56.742;38.866;2023-04-01T10:32:59;98460.0;;;4.4;90.3
28456;BME280;15682;56.742;38.866;2023-04-01T10:34:56;98470.0;;;4.4;88.9
28456;BME280;15682;56.742;38.866;2023-04-01T10:36:57;98470.0;;;4.4;87.6
28456;BME280;15682;56.742;38.866;2023-04-01T10:39:03;98470.0;;;4.4;89.4
28456;BME280;15682;56.742;38.866;2023-04-01T10:41:05;98470.0;;;4.4;89.0
28456;BME280;15682;56.742;38.866;2023-04-01T10:43:04;98470.0;;;4.5;89.0
28456;BME280;15682;56.742;38.866;2023-04-01T10:45:01;98470.0;;;4.5;87.9
28456;BME280;15682;56.742;38.866;2023-04-01T10:46:56;98470.0;;;4.6;87.9
28456;BME280;15682;56.742;38.866;2023-04-01T10:49:02;98470.0;;;4.8;87.9
28456;BME280;15682;56.742;38.866;2023-04-01T10:51:01;98480.0;;;4.8;87.3
28456;BME280;15682;56.742;38.866;2023-04-01T10:54:46;98490.0;;;4.9;87.3
28456;BME280;15682;56.742;38.866;2023-04-01T10:56:50;98490.0;;;4.9;87.3
28456;BME280;15682;56.742;38.866;2023-04-01T11:01:06;98490.0;;;4.9;86.6
28456;BME280;15682;56.742;38.866;2023-04-01T11:05:12;98500.0;;;5.0;86.8
28456;BME280;15682;56.742;38.866;2023-04-01T11:13:07;98500.0;;;4.7;87.4
28456;BME280;15682;56.742;38.866;2023-04-01T11:15:06;98510.0;;;4.9;87.6
28456;BME280;15682;56.742;38.866;2023-04-01T11:16:59;98510.0;;;4.9;87.6